Time;durP1;ratioP1;P1;durP2;ratioP2;P2;SDS_P1;SDS_P2;PMS_P1;PMS_P2;Temp;Humidity;BMP_temperature;BMP_pressure;BME280_temperature;BME280_humidity;BME280_pressure;Samples;Min_cycle;Max_cycle;Signal;HPM_P1;HPM_P2
2023/08/03 00:02:25;;;;;;;5.28;3.45;;;;;;;;;;5016155;28;20240;-87
2023/08/03 00:04:50;;;;;;;3.55;3.25;;;;;;;;;;5041366;28;20274;-87
2023/08/03 00:07:16;;;;;;;11.15;3.80;;;;;;;;;;5053956;28;20714;-85
2023/08/03 00:09:43;;;;;;;7.93;3.55;;;;;;;;;;5042857;28;20254;-86
2023/08/03 00:12:10;;;;;;;5.68;3.33;;;;;;;;;;5041194;28;20210;-88
2023/08/03 00:14:36;;;;;;;5.25;3.17;;;;;;;;;;5046840;28;20238;-88
2023/08/03 00:17:04;;;;;;;5.80;3.13;;;;;;;;;;5041761;28;20207;-89
2023/08/03 00:19:29;;;;;;;4.93;2.90;;;;;;;;;;5004746;28;20220;-89
2023/08/03 00:21:57;;;;;;;4.43;3.15;;;;;;;;;;5002099;28;20231;-87
2023/08/03 00:24:26;;;;;;;7.85;3.03;;;;;;;;;;5020581;28;20585;-87
2023/08/03 00:26:54;;;;;;;3.10;2.80;;;;;;;;;;5012935;28;20230;-88
2023/08/03 00:29:19;;;;;;;4.13;3.10;;;;;;;;;;5014576;28;20220;-90
2023/08/03 00:31:45;;;;;;;4.65;2.65;;;;;;;;;;5010287;28;20228;-88
2023/08/03 00:34:15;;;;;;;3.90;2.70;;;;;;;;;;5030708;28;20231;-88
2023/08/03 00:36:45;;;;;;;6.32;2.70;;;;;;;;;;4984612;28;20236;-88
2023/08/03 00:39:10;;;;;;;4.60;2.75;;;;;;;;;;5002002;28;20223;-85
2023/08/03 00:41:41;;;;;;;5.10;2.92;;;;;;;;;;5011114;28;20259;-88
2023/08/03 00:44:09;;;;;;;6.22;2.83;;;;;;;;;;5017813;28;20237;-85
2023/08/03 00:46:35;;;;;;;5.55;2.58;;;;;;;;;;5043462;28;20228;-85
2023/08/03 00:49:03;;;;;;;8.95;2.85;;;;;;;;;;5022327;28;20267;-83
2023/08/03 00:51:28;;;;;;;9.25;2.63;;;;;;;;;;5024424;28;20224;-88
2023/08/03 00:53:55;;;;;;;3.90;2.35;;;;;;;;;;5030654;28;20261;-86
2023/08/03 00:56:25;;;;;;;5.43;2.53;;;;;;;;;;5002471;28;20275;-87
2023/08/03 00:58:50;;;;;;;6.07;2.58;;;;;;;;;;5008378;28;20222;-86
2023/08/03 01:01:20;;;;;;;3.97;2.20;;;;;;;;;;5034812;28;20214;-84
2023/08/03 01:03:46;;;;;;;4.88;2.70;;;;;;;;;;5008773;28;20219;-85
2023/08/03 01:06:12;;;;;;;5.75;2.70;;;;;;;;;;5008030;28;20212;-85
2023/08/03 01:08:37;;;;;;;6.20;2.70;;;;;;;;;;5029434;28;20277;-85
2023/08/03 01:11:03;;;;;;;4.45;2.63;;;;;;;;;;5057339;28;20238;-85
2023/08/03 01:13:28;;;;;;;4.63;2.58;;;;;;;;;;5001375;28;20215;-86
2023/08/03 01:15:57;;;;;;;2.53;2.15;;;;;;;;;;5026153;28;20213;-87
2023/08/03 01:18:22;;;;;;;4.43;2.35;;;;;;;;;;5020862;28;20232;-84
2023/08/03 01:20:50;;;;;;;4.00;2.42;;;;;;;;;;4989008;28;20212;-86
2023/08/03 01:23:19;;;;;;;4.90;2.33;;;;;;;;;;5022385;28;20319;-86
2023/08/03 01:25:44;;;;;;;6.07;2.17;;;;;;;;;;5027725;28;20211;-85
2023/08/03 01:28:15;;;;;;;6.78;2.28;;;;;;;;;;5043177;28;20606;-86
2023/08/03 01:30:40;;;;;;;5.15;2.30;;;;;;;;;;5017440;28;20288;-85
2023/08/03 01:33:08;;;;;;;4.72;2.40;;;;;;;;;;5055072;28;20247;-86
2023/08/03 01:35:36;;;;;;;3.47;1.88;;;;;;;;;;5015105;28;20235;-86
2023/08/03 01:38:01;;;;;;;5.30;2.30;;;;;;;;;;5042298;28;20219;-86
2023/08/03 01:40:27;;;;;;;7.35;2.30;;;;;;;;;;5006463;28;20268;-87
2023/08/03 01:42:52;;;;;;;2.88;2.30;;;;;;;;;;5022317;28;20700;-85
2023/08/03 01:45:18;;;;;;;3.92;2.05;;;;;;;;;;5033448;28;20293;-86
2023/08/03 01:47:44;;;;;;;5.40;2.13;;;;;;;;;;5037103;28;20212;-86
2023/08/03 01:50:09;;;;;;;7.10;2.35;;;;;;;;;;5013868;28;20240;-85
2023/08/03 01:52:35;;;;;;;4.18;2.30;;;;;;;;;;5010703;28;20220;-85
2023/08/03 01:55:02;;;;;;;4.65;2.40;;;;;;;;;;5041792;28;20876;-85
2023/08/03 01:57:28;;;;;;;2.97;2.05;;;;;;;;;;5004658;28;20215;-85
2023/08/03 01:59:56;;;;;;;3.83;1.98;;;;;;;;;;5034383;28;20220;-87
2023/08/03 02:02:21;;;;;;;4.15;1.90;;;;;;;;;;5020792;28;20845;-85
2023/08/03 02:04:49;;;;;;;4.40;2.30;;;;;;;;;;5025944;28;20221;-85
2023/08/03 02:07:25;;;;;;;3.83;2.10;;;;;;;;;;5039520;28;20257;-85
2023/08/03 02:09:53;;;;;;;4.20;1.98;;;;;;;;;;5014358;28;20776;-86
2023/08/03 02:12:18;;;;;;;6.57;2.30;;;;;;;;;;5043366;28;20235;-85
2023/08/03 02:14:46;;;;;;;4.13;2.28;;;;;;;;;;5007142;28;20299;-85
2023/08/03 02:17:14;;;;;;;3.72;1.90;;;;;;;;;;5065793;28;20656;-85
2023/08/03 02:19:40;;;;;;;3.67;2.22;;;;;;;;;;5035994;28;20231;-87
2023/08/03 02:22:08;;;;;;;5.40;2.67;;;;;;;;;;5041306;28;20246;-85
2023/08/03 02:24:33;;;;;;;3.70;2.25;;;;;;;;;;5058736;28;20667;-86
2023/08/03 02:26:59;;;;;;;4.82;2.05;;;;;;;;;;5010886;28;20215;-86
2023/08/03 02:29:24;;;;;;;6.05;2.10;;;;;;;;;;5002121;28;20235;-87
2023/08/03 02:31:52;;;;;;;8.05;2.30;;;;;;;;;;5029843;28;20219;-87
2023/08/03 02:34:20;;;;;;;3.77;2.30;;;;;;;;;;5044661;28;20226;-86
2023/08/03 02:36:48;;;;;;;6.75;2.10;;;;;;;;;;5023707;28;20231;-85
2023/08/03 02:39:15;;;;;;;5.82;2.15;;;;;;;;;;5038033;28;20227;-85
2023/08/03 02:41:44;;;;;;;3.45;2.28;;;;;;;;;;5044952;28;20231;-84
2023/08/03 02:44:21;;;;;;;3.72;2.00;;;;;;;;;;4980066;28;20288;-87
2023/08/03 02:46:49;;;;;;;5.72;2.05;;;;;;;;;;5031276;28;20595;-86
2023/08/03 02:49:15;;;;;;;6.90;2.42;;;;;;;;;;5011708;28;20224;-87
2023/08/03 02:51:42;;;;;;;7.85;2.05;;;;;;;;;;5015339;28;20961;-87
2023/08/03 02:54:11;;;;;;;5.32;2.22;;;;;;;;;;5011659;28;20255;-87
2023/08/03 02:56:45;;;;;;;3.90;2.03;;;;;;;;;;5004436;28;20266;-85
2023/08/03 02:59:10;;;;;;;3.03;1.67;;;;;;;;;;5020562;28;20572;-87
2023/08/03 03:01:47;;;;;;;4.45;1.98;;;;;;;;;;5001272;28;20232;-86
2023/08/03 03:04:15;;;;;;;3.70;1.60;;;;;;;;;;5027290;28;20830;-85
2023/08/03 03:06:46;;;;;;;5.95;1.80;;;;;;;;;;5018932;28;20266;-85
2023/08/03 03:09:13;;;;;;;6.32;2.03;;;;;;;;;;4996260;28;20708;-87
2023/08/03 03:11:44;;;;;;;2.35;1.42;;;;;;;;;;5019496;28;20205;-86
2023/08/03 03:14:13;;;;;;;10.38;2.03;;;;;;;;;;5023411;28;20223;-87
2023/08/03 03:16:41;;;;;;;3.63;2.03;;;;;;;;;;5041754;28;20224;-84
2023/08/03 03:19:08;;;;;;;4.28;2.20;;;;;;;;;;5051384;28;20583;-85
2023/08/03 03:21:35;;;;;;;4.25;1.65;;;;;;;;;;4987008;28;20221;-85
2023/08/03 03:24:03;;;;;;;3.50;2.20;;;;;;;;;;5043448;28;20220;-85
2023/08/03 03:26:30;;;;;;;2.47;2.00;;;;;;;;;;5007083;28;20230;-87
2023/08/03 03:28:56;;;;;;;8.18;2.28;;;;;;;;;;5009031;28;20308;-86
2023/08/03 03:31:29;;;;;;;5.18;2.17;;;;;;;;;;4989343;28;20229;-87
2023/08/03 03:33:59;;;;;;;3.75;1.92;;;;;;;;;;5022754;28;20243;-85
2023/08/03 03:36:25;;;;;;;11.23;2.15;;;;;;;;;;5027353;28;20225;-89
2023/08/03 03:38:53;;;;;;;2.95;1.75;;;;;;;;;;5014903;28;20204;-88
2023/08/03 03:41:19;;;;;;;5.97;1.80;;;;;;;;;;5013035;28;20220;-88
2023/08/03 03:43:49;;;;;;;3.40;1.88;;;;;;;;;;5003261;28;20957;-88
2023/08/03 03:46:14;;;;;;;6.60;2.10;;;;;;;;;;5009216;28;20238;-86
2023/08/03 03:48:41;;;;;;;3.55;1.95;;;;;;;;;;4980964;28;20224;-84
2023/08/03 03:51:06;;;;;;;5.00;2.03;;;;;;;;;;4995110;28;20274;-87
2023/08/03 03:53:35;;;;;;;2.53;1.60;;;;;;;;;;4981731;28;20711;-86
2023/08/03 03:56:08;;;;;;;4.68;1.77;;;;;;;;;;5010946;28;20276;-86
2023/08/03 03:58:33;;;;;;;4.38;1.65;;;;;;;;;;5024697;28;20268;-85
2023/08/03 04:04:50;;;;;;;7.65;1.95;;;;;;;;;;5028195;28;20260;-84
2023/08/03 04:07:16;;;;;;;2.95;1.55;;;;;;;;;;5036851;28;20230;-86
2023/08/03 04:09:41;;;;;;;6.35;1.55;;;;;;;;;;5042892;28;20351;-87
2023/08/03 04:12:07;;;;;;;5.18;2.05;;;;;;;;;;5034009;28;20227;-86
2023/08/03 04:14:35;;;;;;;2.90;1.42;;;;;;;;;;4995529;28;20308;-86
2023/08/03 04:17:02;;;;;;;3.25;1.55;;;;;;;;;;5008541;28;20224;-85
2023/08/03 04:19:29;;;;;;;3.17;1.75;;;;;;;;;;5034432;28;20224;-87
2023/08/03 04:21:54;;;;;;;2.50;1.40;;;;;;;;;;5009521;28;20712;-85
2023/08/03 04:24:20;;;;;;;3.00;1.40;;;;;;;;;;5008790;28;20216;-86
2023/08/03 04:26:49;;;;;;;2.03;1.35;;;;;;;;;;5017335;28;20243;-87
2023/08/03 04:29:21;;;;;;;2.80;1.48;;;;;;;;;;5022388;28;20196;-87
2023/08/03 04:31:49;;;;;;;5.00;1.50;;;;;;;;;;5011819;28;20220;-88
2023/08/03 04:34:15;;;;;;;3.55;1.58;;;;;;;;;;5012331;28;20217;-86
2023/08/03 04:36:44;;;;;;;2.28;1.38;;;;;;;;;;5035360;28;20228;-87
2023/08/03 04:39:10;;;;;;;2.30;1.40;;;;;;;;;;5007314;28;20693;-87
2023/08/03 04:41:38;;;;;;;2.17;1.27;;;;;;;;;;5038172;28;20764;-86
2023/08/03 04:44:04;;;;;;;2.50;1.40;;;;;;;;;;5016340;28;20216;-86
2023/08/03 04:46:36;;;;;;;2.03;1.23;;;;;;;;;;5036322;28;20229;-86
2023/08/03 04:49:03;;;;;;;1.80;1.08;;;;;;;;;;5017069;28;20235;-87
2023/08/03 04:51:31;;;;;;;3.13;1.20;;;;;;;;;;5044436;28;20216;-87
2023/08/03 04:54:00;;;;;;;3.60;1.35;;;;;;;;;;5019097;28;20219;-87
2023/08/03 04:56:30;;;;;;;1.48;1.02;;;;;;;;;;4999717;28;20229;-85
2023/08/03 04:58:56;;;;;;;1.20;1.10;;;;;;;;;;5044009;28;20221;-85
2023/08/03 05:01:25;;;;;;;1.40;1.00;;;;;;;;;;5050854;28;20226;-83
2023/08/03 05:03:52;;;;;;;1.20;1.10;;;;;;;;;;5019688;28;20223;-85
2023/08/03 05:06:21;;;;;;;2.37;1.30;;;;;;;;;;5020961;28;20224;-85
2023/08/03 05:08:46;;;;;;;1.27;1.20;;;;;;;;;;5032851;28;20322;-82
2023/08/03 05:11:12;;;;;;;2.22;1.42;;;;;;;;;;5037080;28;20242;-85
2023/08/03 05:13:41;;;;;;;1.65;1.55;;;;;;;;;;5002377;28;20220;-85
2023/08/03 05:16:06;;;;;;;2.47;1.85;;;;;;;;;;5025285;28;20219;-85
2023/08/03 05:18:32;;;;;;;2.17;1.98;;;;;;;;;;5000837;28;20244;-85
2023/08/03 05:20:57;;;;;;;3.38;2.17;;;;;;;;;;5014383;28;20238;-85
2023/08/03 05:23:23;;;;;;;2.60;2.40;;;;;;;;;;5014222;28;20270;-83
2023/08/03 05:25:57;;;;;;;2.30;2.10;;;;;;;;;;5029416;28;20216;-86
2023/08/03 05:28:26;;;;;;;3.10;2.90;;;;;;;;;;5056238;28;20223;-84
2023/08/03 05:30:51;;;;;;;3.10;2.90;;;;;;;;;;5034343;28;20288;-85
2023/08/03 05:33:17;;;;;;;3.40;3.10;;;;;;;;;;5005591;28;20234;-84
2023/08/03 05:35:46;;;;;;;3.72;3.53;;;;;;;;;;5047834;28;20212;-84
2023/08/03 05:38:14;;;;;;;3.72;3.53;;;;;;;;;;5049497;28;20212;-88
2023/08/03 05:40:39;;;;;;;4.35;4.05;;;;;;;;;;5020944;28;20311;-84
2023/08/03 05:43:12;;;;;;;4.38;4.00;;;;;;;;;;5028339;28;20265;-87
2023/08/03 05:45:44;;;;;;;4.60;4.25;;;;;;;;;;5034218;28;20231;-84
2023/08/03 05:48:21;;;;;;;5.07;4.65;;;;;;;;;;5030306;28;20717;-84
2023/08/03 05:50:52;;;;;;;5.00;4.70;;;;;;;;;;5004019;28;20231;-88
2023/08/03 05:53:20;;;;;;;4.95;4.55;;;;;;;;;;4982471;28;20747;-86
2023/08/03 05:55:45;;;;;;;5.43;4.97;;;;;;;;;;5028528;28;20613;-85
2023/08/03 05:58:13;;;;;;;5.07;4.70;;;;;;;;;;5008550;28;20227;-85
2023/08/03 06:00:41;;;;;;;4.65;4.35;;;;;;;;;;5041617;28;20235;-85
2023/08/03 06:03:13;;;;;;;5.47;5.00;;;;;;;;;;4987831;28;20211;-82
2023/08/03 06:05:43;;;;;;;5.25;4.80;;;;;;;;;;5051438;28;20300;-84
2023/08/03 06:08:21;;;;;;;5.18;4.75;;;;;;;;;;5055788;28;20622;-86
2023/08/03 06:10:52;;;;;;;5.10;4.80;;;;;;;;;;5017993;28;20311;-87
2023/08/03 06:13:27;;;;;;;5.22;4.82;;;;;;;;;;5017273;28;20239;-89
2023/08/03 06:15:52;;;;;;;5.20;4.90;;;;;;;;;;5039069;28;20223;-87
2023/08/03 06:18:19;;;;;;;5.45;5.13;;;;;;;;;;5045518;28;20211;-87
2023/08/03 06:20:49;;;;;;;5.70;5.20;;;;;;;;;;5009995;28;20231;-87
2023/08/03 06:23:23;;;;;;;5.30;4.90;;;;;;;;;;5006820;28;20215;-88
2023/08/03 06:25:50;;;;;;;4.90;4.50;;;;;;;;;;5014303;28;20220;-86
2023/08/03 06:28:17;;;;;;;5.20;4.90;;;;;;;;;;5015662;28;20265;-84
2023/08/03 06:30:46;;;;;;;4.93;4.63;;;;;;;;;;5027582;28;20308;-88
2023/08/03 06:33:15;;;;;;;4.55;4.25;;;;;;;;;;5038919;28;20224;-88
2023/08/03 06:35:41;;;;;;;4.57;4.28;;;;;;;;;;5048909;28;20796;-84
2023/08/03 06:38:18;;;;;;;5.10;4.70;;;;;;;;;;5041616;28;20700;-85
2023/08/03 06:40:47;;;;;;;4.63;4.22;;;;;;;;;;5033527;28;20215;-86
2023/08/03 06:43:13;;;;;;;4.35;4.05;;;;;;;;;;5053728;28;20740;-85
2023/08/03 06:45:40;;;;;;;3.88;3.67;;;;;;;;;;5027168;28;20224;-88
2023/08/03 06:48:08;;;;;;;3.20;3.00;;;;;;;;;;5018669;28;20231;-86
2023/08/03 06:50:34;;;;;;;3.85;3.55;;;;;;;;;;5017066;28;20663;-85
2023/08/03 06:53:02;;;;;;;4.20;4.00;;;;;;;;;;5016076;28;20217;-85
2023/08/03 06:55:27;;;;;;;4.85;4.55;;;;;;;;;;5013216;28;20219;-83
2023/08/03 06:57:55;;;;;;;4.55;4.25;;;;;;;;;;5017574;28;20295;-84
2023/08/03 07:00:23;;;;;;;4.90;4.50;;;;;;;;;;5033713;28;20271;-88
2023/08/03 07:02:49;;;;;;;4.88;4.57;;;;;;;;;;5039811;28;20834;-88
2023/08/03 07:05:17;;;;;;;5.22;4.90;;;;;;;;;;4982218;28;20316;-85
2023/08/03 07:07:42;;;;;;;5.13;4.82;;;;;;;;;;5035328;28;20258;-86
2023/08/03 07:10:08;;;;;;;5.30;4.90;;;;;;;;;;4995930;28;20216;-87
2023/08/03 07:12:36;;;;;;;5.50;5.00;;;;;;;;;;5031183;28;20238;-86
2023/08/03 07:15:05;;;;;;;5.50;5.07;;;;;;;;;;5025892;28;20209;-86
2023/08/03 07:17:31;;;;;;;5.43;5.13;;;;;;;;;;5035659;28;20701;-86
2023/08/03 07:19:57;;;;;;;5.00;4.63;;;;;;;;;;5005322;28;20298;-86
2023/08/03 07:22:22;;;;;;;4.80;4.50;;;;;;;;;;5013623;28;20299;-85
2023/08/03 07:24:48;;;;;;;4.95;4.65;;;;;;;;;;5014735;28;20212;-87
2023/08/03 07:27:16;;;;;;;5.47;5.13;;;;;;;;;;4999340;28;20220;-88
2023/08/03 07:29:42;;;;;;;5.07;4.68;;;;;;;;;;5008419;28;20246;-85
2023/08/03 07:32:11;;;;;;;5.97;5.57;;;;;;;;;;4999654;28;20220;-85
2023/08/03 07:34:37;;;;;;;5.50;5.00;;;;;;;;;;5056783;28;20715;-86
2023/08/03 07:37:08;;;;;;;5.95;5.55;;;;;;;;;;4999507;28;20301;-87
2023/08/03 07:39:38;;;;;;;5.35;4.95;;;;;;;;;;5012964;28;20701;-87
2023/08/03 07:42:11;;;;;;;5.18;4.78;;;;;;;;;;5042784;28;20222;-87
2023/08/03 07:44:36;;;;;;;5.88;4.35;;;;;;;;;;5000774;28;20257;-87
2023/08/03 07:47:04;;;;;;;5.30;4.93;;;;;;;;;;5010534;28;20318;-84
2023/08/03 07:49:30;;;;;;;4.82;4.53;;;;;;;;;;5020148;28;20225;-85
2023/08/03 07:51:55;;;;;;;5.40;5.00;;;;;;;;;;5035013;28;20219;-87
2023/08/03 07:54:21;;;;;;;5.43;5.00;;;;;;;;;;4999473;28;20219;-86
2023/08/03 07:56:46;;;;;;;5.90;5.40;;;;;;;;;;5012803;28;20212;-83
2023/08/03 07:59:14;;;;;;;5.68;5.15;;;;;;;;;;5013986;28;20231;-87
2023/08/03 08:01:43;;;;;;;5.38;4.93;;;;;;;;;;5052709;28;20219;-86
2023/08/03 08:04:14;;;;;;;5.22;4.82;;;;;;;;;;5030171;28;20269;-90
2023/08/03 08:06:46;;;;;;;5.75;5.22;;;;;;;;;;5001885;28;20235;-84
2023/08/03 08:09:16;;;;;;;7.22;5.00;;;;;;;;;;5024653;28;20212;-85
2023/08/03 08:11:42;;;;;;;5.65;4.80;;;;;;;;;;4997933;28;20616;-90
2023/08/03 08:14:10;;;;;;;4.40;4.00;;;;;;;;;;5024763;28;20212;-80
2023/08/03 08:16:38;;;;;;;4.50;3.80;;;;;;;;;;5039455;28;20290;-81
2023/08/03 08:19:04;;;;;;;3.47;3.10;;;;;;;;;;5016201;28;20704;-80
2023/08/03 08:21:32;;;;;;;5.93;3.10;;;;;;;;;;5007552;28;20234;-78
2023/08/03 08:23:57;;;;;;;3.05;2.85;;;;;;;;;;5024530;28;20212;-78
2023/08/03 08:26:25;;;;;;;2.72;2.40;;;;;;;;;;5045673;28;20223;-79
2023/08/03 08:28:56;;;;;;;4.88;2.67;;;;;;;;;;5047817;28;20227;-79
2023/08/03 08:31:23;;;;;;;3.83;2.40;;;;;;;;;;5045716;28;20259;-81
2023/08/03 08:33:51;;;;;;;2.80;2.15;;;;;;;;;;5019400;28;20260;-78
2023/08/03 08:36:17;;;;;;;2.10;1.80;;;;;;;;;;5044988;28;20223;-78
2023/08/03 08:38:47;;;;;;;3.20;1.80;;;;;;;;;;5029091;28;20219;-77
2023/08/03 08:41:13;;;;;;;4.97;2.08;;;;;;;;;;4998870;28;20224;-79
2023/08/03 08:43:42;;;;;;;4.85;2.30;;;;;;;;;;5000555;28;20219;-79
2023/08/03 08:46:07;;;;;;;2.20;2.00;;;;;;;;;;5013453;28;20265;-79
2023/08/03 08:48:34;;;;;;;2.15;1.98;;;;;;;;;;5001449;28;20571;-79
2023/08/03 08:51:04;;;;;;;2.42;2.03;;;;;;;;;;5050712;28;20227;-78
2023/08/03 08:53:30;;;;;;;3.17;1.83;;;;;;;;;;5059427;28;20231;-78
2023/08/03 08:55:56;;;;;;;2.35;2.15;;;;;;;;;;5041912;28;20269;-83
2023/08/03 08:58:21;;;;;;;2.20;2.00;;;;;;;;;;5021384;28;20294;-86
2023/08/03 09:00:49;;;;;;;1.88;1.60;;;;;;;;;;5043423;28;20238;-82
2023/08/03 09:03:15;;;;;;;2.47;1.88;;;;;;;;;;5007698;28;20227;-83
2023/08/03 09:05:41;;;;;;;2.65;1.70;;;;;;;;;;5060591;28;20227;-85
2023/08/03 09:08:11;;;;;;;2.67;2.00;;;;;;;;;;5008604;28;20762;-83
2023/08/03 09:10:53;;;;;;;2.83;1.70;;;;;;;;;;5054885;28;20220;-83
2023/08/03 09:13:31;;;;;;;1.98;1.45;;;;;;;;;;5041205;28;20250;-82
2023/08/03 09:15:57;;;;;;;1.75;1.63;;;;;;;;;;5035809;28;20221;-85
2023/08/03 09:18:26;;;;;;;1.77;1.60;;;;;;;;;;4992791;28;20251;-85
2023/08/03 09:21:16;;;;;;;1.63;1.50;;;;;;;;;;5013891;28;20232;-82
2023/08/03 09:23:42;;;;;;;2.00;1.77;;;;;;;;;;5027672;28;20219;-82
2023/08/03 09:26:10;;;;;;;1.70;1.38;;;;;;;;;;5028436;28;20250;-85
2023/08/03 09:28:40;;;;;;;1.90;1.30;;;;;;;;;;4985680;28;20289;-85
2023/08/03 09:31:06;;;;;;;1.50;1.40;;;;;;;;;;5016344;28;20263;-80
2023/08/03 09:33:32;;;;;;;1.42;1.33;;;;;;;;;;5059759;28;20231;-85
2023/08/03 09:36:10;;;;;;;2.15;1.30;;;;;;;;;;5038800;28;20239;-85
2023/08/03 09:38:38;;;;;;;1.42;1.17;;;;;;;;;;5025693;28;20231;-86
2023/08/03 09:41:08;;;;;;;1.48;1.20;;;;;;;;;;5021145;28;20220;-86
2023/08/03 09:43:36;;;;;;;1.15;1.02;;;;;;;;;;5067959;28;20303;-86
2023/08/03 09:46:01;;;;;;;1.30;1.00;;;;;;;;;;5027719;28;20267;-83
2023/08/03 09:48:32;;;;;;;1.30;1.10;;;;;;;;;;5053174;28;20240;-85
2023/08/03 09:50:58;;;;;;;1.08;1.00;;;;;;;;;;5025031;28;20236;-86
2023/08/03 09:53:45;;;;;;;2.35;1.17;;;;;;;;;;5023087;28;20223;-87
2023/08/03 09:56:10;;;;;;;1.10;1.00;;;;;;;;;;5027439;28;20221;-84
2023/08/03 09:58:49;;;;;;;2.17;1.02;;;;;;;;;;5007299;28;20221;-86
2023/08/03 10:01:15;;;;;;;1.92;0.98;;;;;;;;;;5036720;28;20689;-87
2023/08/03 10:03:43;;;;;;;1.30;0.80;;;;;;;;;;4985945;28;20227;-86
2023/08/03 10:06:13;;;;;;;1.80;1.00;;;;;;;;;;5027431;28;20220;-86
2023/08/03 10:08:52;;;;;;;1.10;0.90;;;;;;;;;;5029219;28;20233;-85
2023/08/03 10:11:18;;;;;;;1.00;0.80;;;;;;;;;;5020932;28;20227;-83
2023/08/03 10:13:47;;;;;;;0.98;0.80;;;;;;;;;;5017812;28;20750;-88
2023/08/03 10:16:18;;;;;;;0.90;0.90;;;;;;;;;;5038539;28;20222;-85
2023/08/03 10:18:44;;;;;;;0.93;0.93;;;;;;;;;;5003868;28;20227;-86
2023/08/03 10:21:12;;;;;;;0.75;0.70;;;;;;;;;;4999974;28;20232;-87
2023/08/03 10:23:42;;;;;;;1.63;0.77;;;;;;;;;;5018966;28;20255;-85
2023/08/03 10:26:12;;;;;;;1.45;1.00;;;;;;;;;;5054214;28;20761;-84
2023/08/03 10:28:40;;;;;;;0.70;0.60;;;;;;;;;;5014528;28;20219;-81
2023/08/03 10:31:12;;;;;;;0.63;0.60;;;;;;;;;;5053137;28;20230;-85
2023/08/03 10:33:49;;;;;;;1.17;0.65;;;;;;;;;;5052854;28;20279;-80
2023/08/03 10:36:29;;;;;;;3.50;0.90;;;;;;;;;;5046861;28;20227;-83
2023/08/03 10:38:58;;;;;;;1.10;0.73;;;;;;;;;;5050221;28;20495;-82
2023/08/03 10:41:29;;;;;;;1.60;1.10;;;;;;;;;;5033007;28;20249;-80
2023/08/03 10:44:23;;;;;;;1.23;0.70;;;;;;;;;;5008381;28;20601;-85
2023/08/03 10:46:53;;;;;;;1.80;0.70;;;;;;;;;;5015777;28;20298;-79
2023/08/03 10:49:22;;;;;;;1.30;0.85;;;;;;;;;;5033296;28;20219;-76
2023/08/03 10:52:13;;;;;;;0.73;0.73;;;;;;;;;;5034794;28;20239;-79
2023/08/03 10:54:39;;;;;;;1.33;0.80;;;;;;;;;;5051326;28;20232;-79
2023/08/03 10:57:05;;;;;;;0.63;0.63;;;;;;;;;;5037608;28;20236;-78
2023/08/03 10:59:39;;;;;;;0.77;0.68;;;;;;;;;;5047045;28;20249;-78
2023/08/03 11:02:14;;;;;;;0.90;0.90;;;;;;;;;;5033406;28;20249;-79
2023/08/03 11:04:45;;;;;;;2.60;1.05;;;;;;;;;;5039944;28;20267;-79
2023/08/03 11:07:16;;;;;;;1.33;0.90;;;;;;;;;;5037572;28;20218;-80
2023/08/03 11:09:47;;;;;;;1.42;1.23;;;;;;;;;;5029522;28;20227;-79
2023/08/03 11:12:16;;;;;;;1.17;1.02;;;;;;;;;;4996544;28;20244;-79
2023/08/03 11:14:51;;;;;;;1.20;1.10;;;;;;;;;;5021353;28;20310;-78
2023/08/03 11:17:26;;;;;;;1.50;1.40;;;;;;;;;;5036315;28;20215;-78
2023/08/03 11:19:52;;;;;;;1.65;1.50;;;;;;;;;;5028831;28;20234;-79
2023/08/03 11:22:21;;;;;;;2.28;2.08;;;;;;;;;;5014733;28;20237;-79
2023/08/03 11:24:54;;;;;;;2.83;1.17;;;;;;;;;;5038419;28;20227;-80
2023/08/03 11:27:19;;;;;;;1.60;1.17;;;;;;;;;;5041783;28;20291;-83
2023/08/03 11:29:50;;;;;;;1.73;1.27;;;;;;;;;;5032747;28;20212;-80
2023/08/03 11:32:25;;;;;;;1.00;0.98;;;;;;;;;;4996808;28;20311;-80
2023/08/03 11:35:03;;;;;;;2.05;0.90;;;;;;;;;;5013940;28;20220;-80
2023/08/03 11:37:33;;;;;;;0.98;0.90;;;;;;;;;;5021915;28;20286;-80
2023/08/03 11:40:04;;;;;;;1.02;1.02;;;;;;;;;;5031833;28;20235;-78
2023/08/03 11:42:32;;;;;;;0.73;0.73;;;;;;;;;;5028327;28;20231;-81
2023/08/03 11:44:57;;;;;;;0.65;0.60;;;;;;;;;;5009239;28;20235;-80
2023/08/03 11:47:23;;;;;;;0.82;0.50;;;;;;;;;;5021627;28;20223;-83
2023/08/03 11:49:56;;;;;;;0.70;0.70;;;;;;;;;;5011082;28;20215;-81
2023/08/03 11:52:23;;;;;;;0.60;0.60;;;;;;;;;;5048270;28;20223;-83
2023/08/03 11:54:49;;;;;;;0.45;0.45;;;;;;;;;;4990781;28;20699;-79
2023/08/03 12:00:04;;;;;;;0.95;0.73;;;;;;;;;;5026323;28;20231;-81
2023/08/03 12:02:47;;;;;;;0.80;0.80;;;;;;;;;;5027641;28;20235;-81
2023/08/03 12:05:13;;;;;;;0.93;0.57;;;;;;;;;;5022492;28;20266;-80
2023/08/03 12:07:43;;;;;;;0.98;0.77;;;;;;;;;;5064102;28;20220;-80
2023/08/03 12:10:12;;;;;;;0.70;0.70;;;;;;;;;;5042830;28;20211;-80
2023/08/03 12:12:43;;;;;;;1.95;0.63;;;;;;;;;;5005443;28;20648;-81
2023/08/03 12:15:13;;;;;;;0.77;0.77;;;;;;;;;;5056165;28;20220;-80
2023/08/03 12:17:38;;;;;;;1.20;0.77;;;;;;;;;;5047334;28;20227;-80
2023/08/03 12:20:05;;;;;;;7.65;0.65;;;;;;;;;;5023494;28;20652;-79
2023/08/03 12:22:32;;;;;;;0.50;0.50;;;;;;;;;;5024105;28;20235;-80
2023/08/03 12:24:58;;;;;;;1.02;0.60;;;;;;;;;;5040494;28;20223;-81
2023/08/03 12:27:23;;;;;;;1.10;0.65;;;;;;;;;;5038937;28;20226;-80
2023/08/03 12:29:49;;;;;;;0.88;0.63;;;;;;;;;;5037044;28;20215;-79
2023/08/03 12:32:14;;;;;;;0.70;0.70;;;;;;;;;;5034180;28;20226;-78
2023/08/03 12:34:40;;;;;;;1.20;0.68;;;;;;;;;;5018597;28;20227;-78
2023/08/03 12:37:10;;;;;;;0.60;0.60;;;;;;;;;;5061450;28;20229;-80
2023/08/03 12:39:38;;;;;;;1.17;0.50;;;;;;;;;;5036351;28;20238;-80
2023/08/03 12:42:04;;;;;;;1.33;0.80;;;;;;;;;;5020891;28;20259;-78
2023/08/03 12:44:29;;;;;;;0.68;0.60;;;;;;;;;;5041716;28;20216;-79
2023/08/03 12:46:55;;;;;;;0.63;0.63;;;;;;;;;;5052489;28;20226;-78
2023/08/03 12:49:21;;;;;;;0.60;0.60;;;;;;;;;;5060607;28;20838;-79
2023/08/03 12:51:46;;;;;;;2.28;0.60;;;;;;;;;;5037698;28;20219;-79
2023/08/03 12:54:12;;;;;;;1.55;0.80;;;;;;;;;;5006857;28;20636;-82
2023/08/03 12:56:42;;;;;;;0.77;0.60;;;;;;;;;;5043505;28;20600;-78
2023/08/03 12:59:10;;;;;;;0.70;0.50;;;;;;;;;;5039293;28;20220;-79
2023/08/03 13:01:44;;;;;;;0.70;0.70;;;;;;;;;;5047873;28;20219;-80
2023/08/03 13:04:10;;;;;;;1.15;0.75;;;;;;;;;;5031972;28;21564;-81
2023/08/03 13:06:35;;;;;;;1.42;0.65;;;;;;;;;;5041664;28;20231;-79
2023/08/03 13:09:01;;;;;;;0.70;0.60;;;;;;;;;;5046354;28;20215;-79
2023/08/03 13:11:27;;;;;;;1.30;0.80;;;;;;;;;;5024203;28;20689;-79
2023/08/03 13:13:54;;;;;;;1.85;0.70;;;;;;;;;;5043689;28;20223;-77
2023/08/03 13:16:22;;;;;;;2.15;0.57;;;;;;;;;;5040599;28;20223;-80
2023/08/03 13:18:52;;;;;;;0.65;0.65;;;;;;;;;;5023818;28;20220;-80
2023/08/03 13:21:18;;;;;;;1.20;0.80;;;;;;;;;;5063552;28;20230;-81
2023/08/03 13:23:44;;;;;;;1.20;0.80;;;;;;;;;;5019404;28;20225;-80
2023/08/03 13:26:09;;;;;;;0.77;0.50;;;;;;;;;;5031075;28;20859;-78
2023/08/03 13:28:35;;;;;;;0.63;0.63;;;;;;;;;;5004067;28;20232;-78
2023/08/03 13:31:03;;;;;;;0.75;0.50;;;;;;;;;;5028993;28;20250;-80
2023/08/03 13:33:29;;;;;;;1.55;0.80;;;;;;;;;;5000292;28;20223;-78
2023/08/03 13:35:54;;;;;;;2.15;0.85;;;;;;;;;;5025373;28;20574;-79
2023/08/03 13:38:25;;;;;;;0.60;0.60;;;;;;;;;;5020346;28;20302;-80
2023/08/03 13:40:50;;;;;;;1.13;0.68;;;;;;;;;;5023454;28;20239;-80
2023/08/03 13:43:16;;;;;;;0.68;0.68;;;;;;;;;;5018449;28;20228;-79
2023/08/03 13:45:44;;;;;;;0.63;0.57;;;;;;;;;;5062609;28;20223;-77
2023/08/03 13:48:12;;;;;;;1.10;0.70;;;;;;;;;;5042681;28;20634;-78
2023/08/03 13:50:37;;;;;;;1.00;0.50;;;;;;;;;;5049105;28;20294;-80
2023/08/03 13:53:03;;;;;;;0.73;0.70;;;;;;;;;;5002014;28;20600;-78
2023/08/03 13:55:28;;;;;;;0.60;0.60;;;;;;;;;;5064676;28;20602;-78
2023/08/03 13:57:54;;;;;;;1.52;0.80;;;;;;;;;;5047818;28;20222;-78
2023/08/03 14:00:20;;;;;;;0.82;0.60;;;;;;;;;;5061605;28;20277;-79
2023/08/03 14:02:45;;;;;;;1.92;0.60;;;;;;;;;;5053447;28;20220;-80
2023/08/03 14:05:15;;;;;;;1.75;0.90;;;;;;;;;;5003445;28;20212;-80
2023/08/03 14:07:40;;;;;;;1.83;0.47;;;;;;;;;;5023138;28;20322;-78
2023/08/03 14:10:08;;;;;;;0.50;0.50;;;;;;;;;;5009030;28;20723;-78
2023/08/03 14:12:37;;;;;;;0.60;0.60;;;;;;;;;;5053173;28;20235;-77
2023/08/03 14:15:06;;;;;;;0.60;0.60;;;;;;;;;;4993679;28;21094;-77
2023/08/03 14:17:32;;;;;;;0.80;0.80;;;;;;;;;;5062576;28;20695;-79
2023/08/03 14:20:00;;;;;;;0.85;0.80;;;;;;;;;;5063859;28;20220;-78
2023/08/03 14:22:25;;;;;;;4.55;0.77;;;;;;;;;;5044296;28;20227;-77
2023/08/03 14:24:54;;;;;;;0.98;0.60;;;;;;;;;;5054652;28;20215;-78
2023/08/03 14:27:22;;;;;;;3.10;2.17;;;;;;;;;;5074989;28;20235;-78
2023/08/03 14:29:50;;;;;;;1.92;1.15;;;;;;;;;;5046841;28;20314;-78
2023/08/03 14:32:18;;;;;;;3.80;0.75;;;;;;;;;;5039864;28;20235;-78
2023/08/03 14:34:46;;;;;;;2.45;1.30;;;;;;;;;;5059396;28;20227;-79
2023/08/03 14:37:14;;;;;;;1.00;1.00;;;;;;;;;;5048282;28;20302;-77
2023/08/03 14:39:42;;;;;;;2.55;1.60;;;;;;;;;;5061901;28;20231;-81
2023/08/03 14:42:07;;;;;;;1.75;1.33;;;;;;;;;;5017238;28;20204;-84
2023/08/03 14:44:35;;;;;;;2.95;1.10;;;;;;;;;;5024573;28;20314;-84
2023/08/03 14:47:03;;;;;;;1.55;1.13;;;;;;;;;;4999573;28;20245;-81
2023/08/03 14:49:33;;;;;;;2.55;1.40;;;;;;;;;;5044560;28;20223;-83
2023/08/03 14:52:01;;;;;;;11.65;1.95;;;;;;;;;;5037419;28;20219;-86
2023/08/03 14:54:29;;;;;;;3.58;2.08;;;;;;;;;;5035948;28;20282;-83
2023/08/03 14:56:55;;;;;;;4.13;2.13;;;;;;;;;;5024451;28;20756;-85